Iberica Hav — C6YI3 — position and weather

sailwx.info

Track history (hours):
 
Tides and Currents Weather Stations Pressure Air Temp Water Temp Dewpoint Dewpoint Depression Visibility Wind Speed Wind Dir Waves Ship Positions

Iberica Hav

Last reported at 2017-Jan-21 17:25 UTC. Time now 2017-Jan-22 03:41 UTC.
Position N 53°49' E 005°11'.

Length 88 m; draft 3.8 m.

Type: Cargo ship. MMSI: 311034400.

Date/timePositionNaut miles runAvg speedWind from/ knotsBaromVisibWave heightAir tempDewpointWater temp
2017-Jan-21 17:25N 53°49' E 005°11'9 9.7
2017-Jan-21 16:32N 53°50' E 005°25'11 9.3
2017-Jan-21 15:22N 53°51' E 005°43'93 9.4
2017-Jan-21 05:30N 53°60' E 008°21'8 8.6
2017-Jan-21 04:33N 53°58' E 008°34'7 6.5
2017-Jan-21 03:33N 53°53' E 008°42'7 7.3
2017-Jan-21 02:33N 53°51' E 008°54'9 9.4
2017-Jan-21 01:33N 53°54' E 009°09'1 0.8
2017-Jan-21 00:33N 53°54' E 009°10'8 7.9
2017-Jan-20 23:33N 54°00' E 009°18'58 5.8
2017-Jan-20 13:33N 54°34' E 010°39'9 9.3
2017-Jan-20 12:33N 54°33' E 010°55'10 9.8
2017-Jan-20 11:33N 54°33' E 011°12'9 9.5
2017-Jan-20 10:33N 54°32' E 011°28'9 9.5
2017-Jan-20 09:33N 54°31' E 011°44'10 9.7
2017-Jan-20 08:33N 54°30' E 012°01'10 9.6
2017-Jan-20 07:33N 54°32' E 012°17'9 9.3
2017-Jan-20 06:33N 54°34' E 012°33'81 7.2
2017-Jan-19 19:23N 53°46' E 014°24'7 7.8
2017-Jan-19 18:33N 53°41' E 014°31'7 7.2
2017-Jan-19 17:33N 53°34' E 014°36'7 6.6
2017-Jan-19 16:33N 53°28' E 014°36'3 3.0
2017-Jan-19 15:31N 53°25' E 014°37'0 0.0
2017-Jan-19 14:31N 53°25' E 014°37'0 0.0
2017-Jan-19 13:31N 53°25' E 014°37'0 0.0
2017-Jan-19 12:31N 53°25' E 014°37'0 0.0
2017-Jan-19 11:31N 53°25' E 014°37'0 0.0
2017-Jan-19 10:31N 53°25' E 014°37'0 0.0
2017-Jan-19 09:31N 53°25' E 014°37'0 0.0
2017-Jan-19 08:31N 53°25' E 014°37'0 0.0
2017-Jan-19 07:31N 53°25' E 014°37'0 0.0
2017-Jan-19 06:31N 53°25' E 014°37'0 0.0
2017-Jan-19 05:31N 53°25' E 014°37'0 0.0
2017-Jan-19 04:31N 53°25' E 014°37'0 0.0
2017-Jan-19 03:31N 53°25' E 014°37'0 0.0
2017-Jan-19 02:31N 53°25' E 014°37'0 0.0
2017-Jan-19 01:31N 53°25' E 014°37'0 0.0
2017-Jan-19 00:31N 53°25' E 014°37'0 0.0
2017-Jan-18 23:31N 53°25' E 014°37'0 0.0
2017-Jan-18 22:28N 53°25' E 014°37'0 0.0
2017-Jan-18 21:31N 53°25' E 014°37'0 0.0
2017-Jan-18 20:31N 53°25' E 014°37'0 0.0
2017-Jan-18 19:31N 53°25' E 014°37'0 0.0
2017-Jan-18 18:28N 53°25' E 014°37'0 0.0
2017-Jan-18 17:31N 53°25' E 014°37'0 0.0
2017-Jan-18 16:28N 53°25' E 014°37'0 0.0
2017-Jan-18 15:31N 53°25' E 014°37'0 0.0
2017-Jan-18 14:28N 53°25' E 014°37'0 0.0
2017-Jan-18 13:25N 53°25' E 014°37'0 0.0
2017-Jan-18 12:31N 53°25' E 014°37'0 0.0
2017-Jan-18 11:31N 53°25' E 014°37'0 0.0
2017-Jan-18 10:28N 53°25' E 014°37'0 0.0
2017-Jan-18 09:31N 53°25' E 014°37'0 0.0
2017-Jan-18 08:28N 53°25' E 014°37'0 0.0
2017-Jan-18 07:22N 53°25' E 014°37'0 0.0
2017-Jan-18 06:31N 53°25' E 014°37'0 0.0
2017-Jan-18 05:31N 53°25' E 014°37'0 0.0
2017-Jan-18 04:28N 53°25' E 014°37'0 0.0
2017-Jan-18 03:31N 53°25' E 014°37'0 0.0
2017-Jan-18 02:31N 53°25' E 014°37'0 0.0
2017-Jan-18 01:31N 53°25' E 014°37'0 0.0
2017-Jan-18 00:25N 53°25' E 014°37'0 0.0
2017-Jan-17 23:31N 53°25' E 014°37'0 0.0
2017-Jan-17 22:31N 53°25' E 014°37'0 0.0
2017-Jan-17 21:31N 53°25' E 014°37'0 0.0
2017-Jan-17 20:31N 53°25' E 014°37'0 0.0
2017-Jan-17 19:28N 53°25' E 014°37'0 0.0
2017-Jan-17 18:31N 53°25' E 014°37'0 0.0
2017-Jan-17 17:31N 53°25' E 014°37'0 0.0
2017-Jan-17 16:31N 53°25' E 014°37'0 0.0
2017-Jan-17 15:31N 53°25' E 014°37'0 0.0
2017-Jan-17 14:28N 53°25' E 014°37'0 0.0
2017-Jan-17 13:31N 53°25' E 014°37'0 0.0
2017-Jan-17 11:28N 53°25' E 014°37'0 0.0
2017-Jan-17 10:10N 53°25' E 014°37'0 0.0
2017-Jan-17 09:31N 53°25' E 014°37'0 0.0
2017-Jan-17 08:22N 53°25' E 014°37'0 0.0
2017-Jan-17 07:31N 53°25' E 014°37'0 0.0
2017-Jan-17 06:31N 53°25' E 014°37'0 0.0
2017-Jan-17 05:31N 53°25' E 014°37'0 0.0
2017-Jan-17 04:31N 53°25' E 014°37'0 0.0
2017-Jan-17 03:31N 53°25' E 014°37'0 0.0
2017-Jan-17 01:28N 53°25' E 014°37'0 0.0
2017-Jan-17 00:28N 53°25' E 014°37'0 0.0
2017-Jan-16 23:28N 53°25' E 014°37'0 0.0
2017-Jan-16 22:10N 53°25' E 014°37'0 0.0
2017-Jan-16 15:16N 53°25' E 014°37'0 0.0
2017-Jan-16 13:31N 53°25' E 014°37'0 0.0
2017-Jan-16 12:28N 53°25' E 014°37'0 0.0
2017-Jan-16 11:31N 53°25' E 014°37'0 0.0
2017-Jan-16 10:28N 53°25' E 014°37'0 0.0
2017-Jan-16 08:22N 53°25' E 014°37'0 0.0
2017-Jan-16 07:31N 53°25' E 014°37'0 0.0
2017-Jan-16 06:31N 53°25' E 014°37'0 0.0
2017-Jan-16 05:31N 53°25' E 014°37'0 0.0
2017-Jan-16 04:31N 53°25' E 014°37'0 0.0
2017-Jan-16 03:31N 53°25' E 014°37'0 0.0
2017-Jan-16 02:31N 53°25' E 014°37'0 0.0
2017-Jan-16 01:25N 53°25' E 014°37'0 0.0
2017-Jan-15 04:31N 53°25' E 014°37'0 0.0
2017-Jan-15 03:31N 53°25' E 014°37'0 0.0
2017-Jan-15 02:31N 53°25' E 014°37'0 0.0
2017-Jan-15 01:31N 53°25' E 014°37'0 0.0
2017-Jan-15 00:31N 53°25' E 014°37'0 0.0
2017-Jan-14 23:31N 53°25' E 014°37'0 0.0
2017-Jan-14 22:31N 53°25' E 014°37'0 0.0
2017-Jan-14 21:31N 53°25' E 014°37'0 0.0
2017-Jan-14 20:25N 53°25' E 014°37'0 0.0
2017-Jan-14 19:31N 53°25' E 014°37'0 0.0
2017-Jan-14 18:31N 53°25' E 014°37'0 0.0
2017-Jan-14 17:31N 53°25' E 014°37'0 0.0
2017-Jan-14 16:31N 53°25' E 014°37'0 0.0
2017-Jan-14 15:13N 53°25' E 014°37'0 0.0
2017-Jan-14 14:31N 53°25' E 014°37'0 0.0
2017-Jan-14 13:31N 53°25' E 014°37'0 0.0
2017-Jan-14 12:31N 53°25' E 014°37'0 0.0
2017-Jan-14 08:25N 53°25' E 014°37'0 0.0
2017-Jan-14 07:25N 53°25' E 014°37'0 0.0
2017-Jan-14 06:25N 53°25' E 014°37'0 0.0
2017-Jan-14 05:31N 53°25' E 014°37'0 0.0
2017-Jan-14 04:31N 53°25' E 014°37'0 0.0
2017-Jan-13 23:34N 53°25' E 014°37'0 0.0
2017-Jan-13 22:31N 53°25' E 014°37'0 0.0
2017-Jan-13 21:34N 53°25' E 014°37'0 0.0
2017-Jan-13 20:34N 53°25' E 014°37'1 0.5
2017-Jan-13 19:33N 53°25' E 014°37'8 8.1
2017-Jan-13 18:33N 53°33' E 014°36'9 8.8
2017-Jan-13 17:33N 53°41' E 014°30'80 7.3
2017-Jan-13 06:32N 54°36' E 012°50'8 8.4
2017-Jan-13 05:33N 54°34' E 012°37'8 8.5
2017-Jan-13 04:33N 54°32' E 012°23'10 8.8
2017-Jan-13 03:24N 54°25' E 012°10'8 9.3
2017-Jan-13 02:33N 54°25' E 011°57'18 9.0
2017-Jan-13 00:33N 54°30' E 011°27'9 9.3
2017-Jan-12 23:33N 54°33' E 011°12'9 9.2
2017-Jan-12 22:33N 54°33' E 010°56'9 8.7
2017-Jan-12 21:32N 54°33' E 010°41'54 6.7
2017-Jan-12 13:31N 54°07' E 009°20'8 8.2
2017-Jan-12 12:33N 53°60' E 009°17'8 7.9
2017-Jan-12 11:33N 53°54' E 009°09'1 1.2
2017-Jan-12 10:34N 53°53' E 009°07'4 3.9
2017-Jan-12 09:33N 53°51' E 009°01'10 9.8
2017-Jan-12 08:34N 53°51' E 008°44'  
Track history (hours):
 
Tides and Currents Weather Stations Pressure Air Temp Water Temp Dewpoint Dewpoint Depression Visibility Wind Speed Wind Dir Waves Ship Positions

Iberica Hav

Last reported at 2017-Jan-21 17:25 UTC. Time now 2017-Jan-22 03:41 UTC.
Position N 53°49' E 005°11'.

Length 88 m; draft 3.8 m.

Type: Cargo ship. MMSI: 311034400.

Date/timePositionNaut miles runAvg speedWind from/ knotsBaromVisibWave heightAir tempDewpointWater temp
2017-Jan-21 17:25N 53°49' E 005°11'9 9.7
2017-Jan-21 16:32N 53°50' E 005°25'11 9.3
2017-Jan-21 15:22N 53°51' E 005°43'93 9.4
2017-Jan-21 05:30N 53°60' E 008°21'8 8.6
2017-Jan-21 04:33N 53°58' E 008°34'7 6.5
2017-Jan-21 03:33N 53°53' E 008°42'7 7.3
2017-Jan-21 02:33N 53°51' E 008°54'9 9.4
2017-Jan-21 01:33N 53°54' E 009°09'1 0.8
2017-Jan-21 00:33N 53°54' E 009°10'8 7.9
2017-Jan-20 23:33N 54°00' E 009°18'58 5.8
2017-Jan-20 13:33N 54°34' E 010°39'9 9.3
2017-Jan-20 12:33N 54°33' E 010°55'10 9.8
2017-Jan-20 11:33N 54°33' E 011°12'9 9.5
2017-Jan-20 10:33N 54°32' E 011°28'9 9.5
2017-Jan-20 09:33N 54°31' E 011°44'10 9.7
2017-Jan-20 08:33N 54°30' E 012°01'10 9.6
2017-Jan-20 07:33N 54°32' E 012°17'9 9.3
2017-Jan-20 06:33N 54°34' E 012°33'81 7.2
2017-Jan-19 19:23N 53°46' E 014°24'7 7.8
2017-Jan-19 18:33N 53°41' E 014°31'7 7.2
2017-Jan-19 17:33N 53°34' E 014°36'7 6.6
2017-Jan-19 16:33N 53°28' E 014°36'3 3.0
2017-Jan-19 15:31N 53°25' E 014°37'0 0.0
2017-Jan-19 14:31N 53°25' E 014°37'0 0.0
2017-Jan-19 13:31N 53°25' E 014°37'0 0.0
2017-Jan-19 12:31N 53°25' E 014°37'0 0.0
2017-Jan-19 11:31N 53°25' E 014°37'0 0.0
2017-Jan-19 10:31N 53°25' E 014°37'0 0.0
2017-Jan-19 09:31N 53°25' E 014°37'0 0.0
2017-Jan-19 08:31N 53°25' E 014°37'0 0.0
2017-Jan-19 07:31N 53°25' E 014°37'0 0.0
2017-Jan-19 06:31N 53°25' E 014°37'0 0.0
2017-Jan-19 05:31N 53°25' E 014°37'0 0.0
2017-Jan-19 04:31N 53°25' E 014°37'0 0.0
2017-Jan-19 03:31N 53°25' E 014°37'0 0.0
2017-Jan-19 02:31N 53°25' E 014°37'0 0.0
2017-Jan-19 01:31N 53°25' E 014°37'0 0.0
2017-Jan-19 00:31N 53°25' E 014°37'0 0.0
2017-Jan-18 23:31N 53°25' E 014°37'0 0.0
2017-Jan-18 22:28N 53°25' E 014°37'0 0.0
2017-Jan-18 21:31N 53°25' E 014°37'0 0.0
2017-Jan-18 20:31N 53°25' E 014°37'0 0.0
2017-Jan-18 19:31N 53°25' E 014°37'0 0.0
2017-Jan-18 18:28N 53°25' E 014°37'0 0.0
2017-Jan-18 17:31N 53°25' E 014°37'0 0.0
2017-Jan-18 16:28N 53°25' E 014°37'0 0.0
2017-Jan-18 15:31N 53°25' E 014°37'0 0.0
2017-Jan-18 14:28N 53°25' E 014°37'0 0.0
2017-Jan-18 13:25N 53°25' E 014°37'0 0.0
2017-Jan-18 12:31N 53°25' E 014°37'0 0.0
2017-Jan-18 11:31N 53°25' E 014°37'0 0.0
2017-Jan-18 10:28N 53°25' E 014°37'0 0.0
2017-Jan-18 09:31N 53°25' E 014°37'0 0.0
2017-Jan-18 08:28N 53°25' E 014°37'0 0.0
2017-Jan-18 07:22N 53°25' E 014°37'0 0.0
2017-Jan-18 06:31N 53°25' E 014°37'0 0.0
2017-Jan-18 05:31N 53°25' E 014°37'0 0.0
2017-Jan-18 04:28N 53°25' E 014°37'0 0.0
2017-Jan-18 03:31N 53°25' E 014°37'0 0.0
2017-Jan-18 02:31N 53°25' E 014°37'0 0.0
2017-Jan-18 01:31N 53°25' E 014°37'0 0.0
2017-Jan-18 00:25N 53°25' E 014°37'0 0.0
2017-Jan-17 23:31N 53°25' E 014°37'0 0.0
2017-Jan-17 22:31N 53°25' E 014°37'0 0.0
2017-Jan-17 21:31N 53°25' E 014°37'0 0.0
2017-Jan-17 20:31N 53°25' E 014°37'0 0.0
2017-Jan-17 19:28N 53°25' E 014°37'0 0.0
2017-Jan-17 18:31N 53°25' E 014°37'0 0.0
2017-Jan-17 17:31N 53°25' E 014°37'0 0.0
2017-Jan-17 16:31N 53°25' E 014°37'0 0.0
2017-Jan-17 15:31N 53°25' E 014°37'0 0.0
2017-Jan-17 14:28N 53°25' E 014°37'0 0.0
2017-Jan-17 13:31N 53°25' E 014°37'0 0.0
2017-Jan-17 11:28N 53°25' E 014°37'0 0.0
2017-Jan-17 10:10N 53°25' E 014°37'0 0.0
2017-Jan-17 09:31N 53°25' E 014°37'0 0.0
2017-Jan-17 08:22N 53°25' E 014°37'0 0.0
2017-Jan-17 07:31N 53°25' E 014°37'0 0.0
2017-Jan-17 06:31N 53°25' E 014°37'0 0.0
2017-Jan-17 05:31N 53°25' E 014°37'0 0.0
2017-Jan-17 04:31N 53°25' E 014°37'0 0.0
2017-Jan-17 03:31N 53°25' E 014°37'0 0.0
2017-Jan-17 01:28N 53°25' E 014°37'0 0.0
2017-Jan-17 00:28N 53°25' E 014°37'0 0.0
2017-Jan-16 23:28N 53°25' E 014°37'0 0.0
2017-Jan-16 22:10N 53°25' E 014°37'0 0.0
2017-Jan-16 15:16N 53°25' E 014°37'0 0.0
2017-Jan-16 13:31N 53°25' E 014°37'0 0.0
2017-Jan-16 12:28N 53°25' E 014°37'0 0.0
2017-Jan-16 11:31N 53°25' E 014°37'0 0.0
2017-Jan-16 10:28N 53°25' E 014°37'0 0.0
2017-Jan-16 08:22N 53°25' E 014°37'0 0.0
2017-Jan-16 07:31N 53°25' E 014°37'0 0.0
2017-Jan-16 06:31N 53°25' E 014°37'0 0.0
2017-Jan-16 05:31N 53°25' E 014°37'0 0.0
2017-Jan-16 04:31N 53°25' E 014°37'0 0.0
2017-Jan-16 03:31N 53°25' E 014°37'0 0.0
2017-Jan-16 02:31N 53°25' E 014°37'0 0.0
2017-Jan-16 01:25N 53°25' E 014°37'0 0.0
2017-Jan-15 04:31N 53°25' E 014°37'0 0.0
2017-Jan-15 03:31N 53°25' E 014°37'0 0.0
2017-Jan-15 02:31N 53°25' E 014°37'0 0.0
2017-Jan-15 01:31N 53°25' E 014°37'0 0.0
2017-Jan-15 00:31N 53°25' E 014°37'0 0.0
2017-Jan-14 23:31N 53°25' E 014°37'0 0.0
2017-Jan-14 22:31N 53°25' E 014°37'0 0.0
2017-Jan-14 21:31N 53°25' E 014°37'0 0.0
2017-Jan-14 20:25N 53°25' E 014°37'0 0.0
2017-Jan-14 19:31N 53°25' E 014°37'0 0.0
2017-Jan-14 18:31N 53°25' E 014°37'0 0.0
2017-Jan-14 17:31N 53°25' E 014°37'0 0.0
2017-Jan-14 16:31N 53°25' E 014°37'0 0.0
2017-Jan-14 15:13N 53°25' E 014°37'0 0.0
2017-Jan-14 14:31N 53°25' E 014°37'0 0.0
2017-Jan-14 13:31N 53°25' E 014°37'0 0.0
2017-Jan-14 12:31N 53°25' E 014°37'0 0.0
2017-Jan-14 08:25N 53°25' E 014°37'0 0.0
2017-Jan-14 07:25N 53°25' E 014°37'0 0.0
2017-Jan-14 06:25N 53°25' E 014°37'0 0.0
2017-Jan-14 05:31N 53°25' E 014°37'0 0.0
2017-Jan-14 04:31N 53°25' E 014°37'0 0.0
2017-Jan-13 23:34N 53°25' E 014°37'0 0.0
2017-Jan-13 22:31N 53°25' E 014°37'0 0.0
2017-Jan-13 21:34N 53°25' E 014°37'0 0.0
2017-Jan-13 20:34N 53°25' E 014°37'1 0.5
2017-Jan-13 19:33N 53°25' E 014°37'8 8.1
2017-Jan-13 18:33N 53°33' E 014°36'9 8.8
2017-Jan-13 17:33N 53°41' E 014°30'80 7.3
2017-Jan-13 06:32N 54°36' E 012°50'8 8.4
2017-Jan-13 05:33N 54°34' E 012°37'8 8.5
2017-Jan-13 04:33N 54°32' E 012°23'10 8.8
2017-Jan-13 03:24N 54°25' E 012°10'8 9.3
2017-Jan-13 02:33N 54°25' E 011°57'18 9.0
2017-Jan-13 00:33N 54°30' E 011°27'9 9.3
2017-Jan-12 23:33N 54°33' E 011°12'9 9.2
2017-Jan-12 22:33N 54°33' E 010°56'9 8.7
2017-Jan-12 21:32N 54°33' E 010°41'54 6.7
2017-Jan-12 13:31N 54°07' E 009°20'8 8.2
2017-Jan-12 12:33N 53°60' E 009°17'8 7.9
2017-Jan-12 11:33N 53°54' E 009°09'1 1.2
2017-Jan-12 10:34N 53°53' E 009°07'4 3.9
2017-Jan-12 09:33N 53°51' E 009°01'10 9.8
2017-Jan-12 08:34N 53°51' E 008°44'  

Dump ship's entire track history